sensor_id;sensor_type;location;lat;lon;timestamp;P1;durP1;ratioP1;P2;durP2;ratioP2
33094;SDS011;19459;53.044;8.910;2022-12-10T00:01:13;105.47;;;40.00;;
33094;SDS011;19459;53.044;8.910;2022-12-10T00:03:44;98.85;;;41.15;;
33094;SDS011;19459;53.044;8.910;2022-12-10T00:06:11;104.57;;;41.25;;
33094;SDS011;19459;53.044;8.910;2022-12-10T00:08:40;105.88;;;43.15;;
33094;SDS011;19459;53.044;8.910;2022-12-10T00:11:07;100.07;;;40.65;;
33094;SDS011;19459;53.044;8.910;2022-12-10T00:13:35;103.90;;;39.15;;
33094;SDS011;19459;53.044;8.910;2022-12-10T00:16:03;97.03;;;41.92;;
33094;SDS011;19459;53.044;8.910;2022-12-10T00:18:31;95.63;;;38.67;;
33094;SDS011;19459;53.044;8.910;2022-12-10T00:20:58;107.80;;;41.17;;
33094;SDS011;19459;53.044;8.910;2022-12-10T00:23:37;105.75;;;39.63;;
33094;SDS011;19459;53.044;8.910;2022-12-10T00:26:12;116.93;;;44.05;;
33094;SDS011;19459;53.044;8.910;2022-12-10T00:28:48;102.30;;;39.00;;
33094;SDS011;19459;53.044;8.910;2022-12-10T00:31:16;100.03;;;40.30;;
33094;SDS011;19459;53.044;8.910;2022-12-10T00:33:47;99.03;;;42.65;;
33094;SDS011;19459;53.044;8.910;2022-12-10T00:36:18;103.65;;;40.35;;
33094;SDS011;19459;53.044;8.910;2022-12-10T00:38:52;97.93;;;38.90;;
33094;SDS011;19459;53.044;8.910;2022-12-10T00:41:18;95.75;;;39.65;;
33094;SDS011;19459;53.044;8.910;2022-12-10T00:43:44;103.78;;;42.90;;
33094;SDS011;19459;53.044;8.910;2022-12-10T00:46:11;104.30;;;42.22;;
33094;SDS011;19459;53.044;8.910;2022-12-10T00:48:38;107.90;;;41.58;;
33094;SDS011;19459;53.044;8.910;2022-12-10T00:51:06;91.15;;;39.63;;
33094;SDS011;19459;53.044;8.910;2022-12-10T00:53:44;102.82;;;40.45;;
33094;SDS011;19459;53.044;8.910;2022-12-10T00:56:13;100.97;;;39.90;;
33094;SDS011;19459;53.044;8.910;2022-12-10T00:58:40;103.85;;;41.10;;
33094;SDS011;19459;53.044;8.910;2022-12-10T01:01:18;105.25;;;42.13;;
33094;SDS011;19459;53.044;8.910;2022-12-10T01:03:48;96.57;;;38.95;;
33094;SDS011;19459;53.044;8.910;2022-12-10T01:06:21;101.40;;;39.47;;
33094;SDS011;19459;53.044;8.910;2022-12-10T01:08:52;103.65;;;41.92;;
33094;SDS011;19459;53.044;8.910;2022-12-10T01:11:22;97.15;;;39.75;;
33094;SDS011;19459;53.044;8.910;2022-12-10T01:13:52;104.15;;;42.53;;
33094;SDS011;19459;53.044;8.910;2022-12-10T01:16:18;109.05;;;42.95;;
33094;SDS011;19459;53.044;8.910;2022-12-10T01:18:46;99.50;;;41.10;;
33094;SDS011;19459;53.044;8.910;2022-12-10T01:21:13;104.40;;;40.78;;
33094;SDS011;19459;53.044;8.910;2022-12-10T01:23:43;110.82;;;40.88;;
33094;SDS011;19459;53.044;8.910;2022-12-10T01:26:13;109.28;;;40.60;;
33094;SDS011;19459;53.044;8.910;2022-12-10T01:28:42;96.75;;;39.97;;
33094;SDS011;19459;53.044;8.910;2022-12-10T01:31:19;104.00;;;41.45;;
33094;SDS011;19459;53.044;8.910;2022-12-10T01:33:50;99.28;;;41.25;;
33094;SDS011;19459;53.044;8.910;2022-12-10T01:36:21;110.05;;;41.03;;
33094;SDS011;19459;53.044;8.910;2022-12-10T01:38:49;110.10;;;38.60;;
33094;SDS011;19459;53.044;8.910;2022-12-10T01:41:21;109.70;;;40.38;;
33094;SDS011;19459;53.044;8.910;2022-12-10T01:44:02;102.55;;;40.38;;
33094;SDS011;19459;53.044;8.910;2022-12-10T01:46:49;108.40;;;39.30;;
33094;SDS011;19459;53.044;8.910;2022-12-10T01:49:22;109.65;;;39.90;;
33094;SDS011;19459;53.044;8.910;2022-12-10T01:52:03;104.38;;;40.13;;
33094;SDS011;19459;53.044;8.910;2022-12-10T01:54:34;106.07;;;40.78;;
33094;SDS011;19459;53.044;8.910;2022-12-10T01:59:35;110.28;;;44.88;;
33094;SDS011;19459;53.044;8.910;2022-12-10T02:07:27;103.03;;;42.53;;
33094;SDS011;19459;53.044;8.910;2022-12-10T02:10:07;100.68;;;39.08;;
33094;SDS011;19459;53.044;8.910;2022-12-10T02:15:52;103.47;;;42.20;;
33094;SDS011;19459;53.044;8.910;2022-12-10T02:18:27;99.85;;;38.38;;
33094;SDS011;19459;53.044;8.910;2022-12-10T02:21:02;117.68;;;42.22;;
33094;SDS011;19459;53.044;8.910;2022-12-10T02:23:35;103.90;;;39.50;;
33094;SDS011;19459;53.044;8.910;2022-12-10T02:26:22;103.88;;;41.03;;
33094;SDS011;19459;53.044;8.910;2022-12-10T02:31:46;102.47;;;40.05;;
33094;SDS011;19459;53.044;8.910;2022-12-10T02:34:27;92.55;;;38.38;;
33094;SDS011;19459;53.044;8.910;2022-12-10T02:36:56;97.75;;;38.63;;
33094;SDS011;19459;53.044;8.910;2022-12-10T02:39:27;95.05;;;38.03;;
33094;SDS011;19459;53.044;8.910;2022-12-10T02:41:59;92.78;;;38.00;;
33094;SDS011;19459;53.044;8.910;2022-12-10T02:44:27;89.65;;;37.03;;
33094;SDS011;19459;53.044;8.910;2022-12-10T02:46:55;86.40;;;37.38;;
33094;SDS011;19459;53.044;8.910;2022-12-10T02:49:23;92.25;;;36.83;;
33094;SDS011;19459;53.044;8.910;2022-12-10T02:51:50;93.25;;;38.35;;
33094;SDS011;19459;53.044;8.910;2022-12-10T02:54:34;94.88;;;37.30;;
33094;SDS011;19459;53.044;8.910;2022-12-10T02:57:32;93.63;;;37.38;;
33094;SDS011;19459;53.044;8.910;2022-12-10T03:00:14;101.82;;;40.75;;
33094;SDS011;19459;53.044;8.910;2022-12-10T03:05:35;95.20;;;38.10;;
33094;SDS011;19459;53.044;8.910;2022-12-10T03:08:13;92.18;;;38.92;;
33094;SDS011;19459;53.044;8.910;2022-12-10T03:13:47;83.75;;;35.67;;
33094;SDS011;19459;53.044;8.910;2022-12-10T03:16:15;84.55;;;35.53;;
33094;SDS011;19459;53.044;8.910;2022-12-10T03:18:43;81.57;;;36.22;;
33094;SDS011;19459;53.044;8.910;2022-12-10T03:21:12;79.30;;;33.63;;
33094;SDS011;19459;53.044;8.910;2022-12-10T03:23:40;86.40;;;36.45;;
33094;SDS011;19459;53.044;8.910;2022-12-10T03:26:11;89.32;;;36.42;;
33094;SDS011;19459;53.044;8.910;2022-12-10T03:28:39;80.93;;;36.30;;
33094;SDS011;19459;53.044;8.910;2022-12-10T03:31:11;85.15;;;37.38;;
33094;SDS011;19459;53.044;8.910;2022-12-10T03:33:39;81.35;;;35.42;;
33094;SDS011;19459;53.044;8.910;2022-12-10T03:36:06;85.55;;;36.83;;
33094;SDS011;19459;53.044;8.910;2022-12-10T03:38:35;95.05;;;38.17;;
33094;SDS011;19459;53.044;8.910;2022-12-10T03:41:02;83.03;;;36.80;;
33094;SDS011;19459;53.044;8.910;2022-12-10T03:43:28;82.97;;;34.60;;
33094;SDS011;19459;53.044;8.910;2022-12-10T03:45:53;86.72;;;35.35;;
33094;SDS011;19459;53.044;8.910;2022-12-10T03:48:19;77.18;;;35.05;;
33094;SDS011;19459;53.044;8.910;2022-12-10T03:50:45;88.10;;;35.85;;
33094;SDS011;19459;53.044;8.910;2022-12-10T03:53:11;84.40;;;35.53;;
33094;SDS011;19459;53.044;8.910;2022-12-10T03:55:38;78.05;;;35.72;;
33094;SDS011;19459;53.044;8.910;2022-12-10T03:58:04;92.90;;;35.95;;
33094;SDS011;19459;53.044;8.910;2022-12-10T04:00:30;91.53;;;37.55;;
33094;SDS011;19459;53.044;8.910;2022-12-10T04:02:56;73.95;;;33.22;;
33094;SDS011;19459;53.044;8.910;2022-12-10T04:05:22;77.80;;;33.53;;
33094;SDS011;19459;53.044;8.910;2022-12-10T04:07:47;76.60;;;33.60;;
33094;SDS011;19459;53.044;8.910;2022-12-10T04:10:13;81.47;;;34.53;;
33094;SDS011;19459;53.044;8.910;2022-12-10T04:12:39;75.95;;;33.15;;
33094;SDS011;19459;53.044;8.910;2022-12-10T04:15:05;80.28;;;35.75;;
33094;SDS011;19459;53.044;8.910;2022-12-10T04:17:50;81.90;;;35.50;;
33094;SDS011;19459;53.044;8.910;2022-12-10T04:20:16;87.10;;;35.03;;
33094;SDS011;19459;53.044;8.910;2022-12-10T04:25:44;76.65;;;34.00;;
33094;SDS011;19459;53.044;8.910;2022-12-10T04:28:29;72.22;;;31.67;;
33094;SDS011;19459;53.044;8.910;2022-12-10T04:30:55;85.57;;;35.97;;
33094;SDS011;19459;53.044;8.910;2022-12-10T04:33:20;77.88;;;34.05;;
33094;SDS011;19459;53.044;8.910;2022-12-10T04:35:46;81.82;;;34.17;;
33094;SDS011;19459;53.044;8.910;2022-12-10T04:38:12;82.35;;;34.70;;
33094;SDS011;19459;53.044;8.910;2022-12-10T04:40:38;83.47;;;36.38;;
33094;SDS011;19459;53.044;8.910;2022-12-10T04:43:12;83.43;;;34.53;;
33094;SDS011;19459;53.044;8.910;2022-12-10T04:45:38;77.13;;;34.47;;
33094;SDS011;19459;53.044;8.910;2022-12-10T04:48:04;81.82;;;34.90;;
33094;SDS011;19459;53.044;8.910;2022-12-10T04:50:29;75.18;;;33.45;;
33094;SDS011;19459;53.044;8.910;2022-12-10T04:52:55;80.03;;;34.13;;
33094;SDS011;19459;53.044;8.910;2022-12-10T04:55:21;75.32;;;33.75;;
33094;SDS011;19459;53.044;8.910;2022-12-10T04:57:47;82.50;;;34.60;;
33094;SDS011;19459;53.044;8.910;2022-12-10T05:00:12;74.80;;;32.58;;
33094;SDS011;19459;53.044;8.910;2022-12-10T05:02:38;80.57;;;33.00;;
33094;SDS011;19459;53.044;8.910;2022-12-10T05:05:04;70.63;;;31.38;;
33094;SDS011;19459;53.044;8.910;2022-12-10T05:07:30;83.28;;;34.45;;
33094;SDS011;19459;53.044;8.910;2022-12-10T05:09:58;80.00;;;33.85;;
33094;SDS011;19459;53.044;8.910;2022-12-10T05:12:23;78.32;;;34.88;;
33094;SDS011;19459;53.044;8.910;2022-12-10T05:14:49;86.72;;;35.13;;
33094;SDS011;19459;53.044;8.910;2022-12-10T05:17:15;81.05;;;34.50;;
33094;SDS011;19459;53.044;8.910;2022-12-10T05:19:40;77.97;;;33.72;;
33094;SDS011;19459;53.044;8.910;2022-12-10T05:22:07;85.47;;;35.72;;
33094;SDS011;19459;53.044;8.910;2022-12-10T05:24:52;73.82;;;33.95;;
33094;SDS011;19459;53.044;8.910;2022-12-10T05:27:18;79.88;;;34.55;;
33094;SDS011;19459;53.044;8.910;2022-12-10T05:29:43;75.85;;;33.85;;
33094;SDS011;19459;53.044;8.910;2022-12-10T05:32:09;73.00;;;32.10;;
33094;SDS011;19459;53.044;8.910;2022-12-10T05:34:35;81.10;;;34.83;;
33094;SDS011;19459;53.044;8.910;2022-12-10T05:37:01;78.97;;;35.72;;
33094;SDS011;19459;53.044;8.910;2022-12-10T05:39:27;83.90;;;34.55;;
33094;SDS011;19459;53.044;8.910;2022-12-10T05:41:52;80.45;;;35.55;;
33094;SDS011;19459;53.044;8.910;2022-12-10T05:44:18;84.90;;;35.00;;
33094;SDS011;19459;53.044;8.910;2022-12-10T05:46:44;78.68;;;32.83;;
33094;SDS011;19459;53.044;8.910;2022-12-10T05:49:10;77.15;;;31.98;;
33094;SDS011;19459;53.044;8.910;2022-12-10T05:51:36;75.25;;;32.75;;
33094;SDS011;19459;53.044;8.910;2022-12-10T05:54:03;81.10;;;33.33;;
33094;SDS011;19459;53.044;8.910;2022-12-10T05:56:31;82.53;;;33.80;;
33094;SDS011;19459;53.044;8.910;2022-12-10T05:58:58;82.90;;;34.85;;
33094;SDS011;19459;53.044;8.910;2022-12-10T06:01:27;71.97;;;30.85;;
33094;SDS011;19459;53.044;8.910;2022-12-10T06:03:57;75.15;;;32.00;;
33094;SDS011;19459;53.044;8.910;2022-12-10T06:06:26;70.53;;;30.67;;
33094;SDS011;19459;53.044;8.910;2022-12-10T06:08:54;79.20;;;32.53;;
33094;SDS011;19459;53.044;8.910;2022-12-10T06:11:21;77.97;;;35.05;;
33094;SDS011;19459;53.044;8.910;2022-12-10T06:13:47;81.32;;;33.20;;
33094;SDS011;19459;53.044;8.910;2022-12-10T06:16:14;73.30;;;32.83;;
33094;SDS011;19459;53.044;8.910;2022-12-10T06:18:40;72.90;;;31.20;;
33094;SDS011;19459;53.044;8.910;2022-12-10T06:21:07;81.22;;;34.30;;
33094;SDS011;19459;53.044;8.910;2022-12-10T06:23:36;78.35;;;33.58;;
33094;SDS011;19459;53.044;8.910;2022-12-10T06:26:07;72.82;;;33.63;;
33094;SDS011;19459;53.044;8.910;2022-12-10T06:28:36;93.22;;;37.40;;
33094;SDS011;19459;53.044;8.910;2022-12-10T06:31:03;90.50;;;38.88;;
33094;SDS011;19459;53.044;8.910;2022-12-10T06:33:29;98.25;;;45.15;;
33094;SDS011;19459;53.044;8.910;2022-12-10T06:35:55;89.65;;;41.60;;
33094;SDS011;19459;53.044;8.910;2022-12-10T06:38:20;90.53;;;39.40;;
33094;SDS011;19459;53.044;8.910;2022-12-10T06:40:46;95.47;;;39.22;;
33094;SDS011;19459;53.044;8.910;2022-12-10T06:43:12;84.10;;;36.65;;
33094;SDS011;19459;53.044;8.910;2022-12-10T06:45:38;95.93;;;41.20;;
33094;SDS011;19459;53.044;8.910;2022-12-10T06:48:06;98.93;;;41.10;;
33094;SDS011;19459;53.044;8.910;2022-12-10T06:50:32;118.22;;;43.30;;
33094;SDS011;19459;53.044;8.910;2022-12-10T06:52:58;154.25;;;59.05;;
33094;SDS011;19459;53.044;8.910;2022-12-10T06:55:23;117.18;;;47.25;;
33094;SDS011;19459;53.044;8.910;2022-12-10T06:57:52;97.65;;;40.10;;
33094;SDS011;19459;53.044;8.910;2022-12-10T07:00:19;94.10;;;38.85;;
33094;SDS011;19459;53.044;8.910;2022-12-10T07:02:46;90.68;;;39.00;;
33094;SDS011;19459;53.044;8.910;2022-12-10T07:05:12;85.63;;;37.38;;
33094;SDS011;19459;53.044;8.910;2022-12-10T07:07:38;91.32;;;37.25;;
33094;SDS011;19459;53.044;8.910;2022-12-10T07:10:04;96.35;;;37.47;;
33094;SDS011;19459;53.044;8.910;2022-12-10T07:12:31;90.45;;;38.47;;
33094;SDS011;19459;53.044;8.910;2022-12-10T07:14:56;99.05;;;39.35;;
33094;SDS011;19459;53.044;8.910;2022-12-10T07:17:22;86.47;;;35.35;;
33094;SDS011;19459;53.044;8.910;2022-12-10T07:19:48;103.28;;;38.97;;
33094;SDS011;19459;53.044;8.910;2022-12-10T07:22:14;93.10;;;39.00;;
33094;SDS011;19459;53.044;8.910;2022-12-10T07:24:40;92.68;;;40.28;;
33094;SDS011;19459;53.044;8.910;2022-12-10T07:27:06;99.72;;;39.05;;
33094;SDS011;19459;53.044;8.910;2022-12-10T07:29:33;94.43;;;37.40;;
33094;SDS011;19459;53.044;8.910;2022-12-10T07:32:00;93.55;;;40.45;;
33094;SDS011;19459;53.044;8.910;2022-12-10T07:34:26;94.75;;;39.40;;
33094;SDS011;19459;53.044;8.910;2022-12-10T07:36:51;90.30;;;39.05;;
33094;SDS011;19459;53.044;8.910;2022-12-10T07:39:17;99.88;;;40.30;;
33094;SDS011;19459;53.044;8.910;2022-12-10T07:41:44;94.63;;;38.75;;
33094;SDS011;19459;53.044;8.910;2022-12-10T07:44:15;93.55;;;38.88;;
33094;SDS011;19459;53.044;8.910;2022-12-10T07:46:41;102.10;;;39.20;;
33094;SDS011;19459;53.044;8.910;2022-12-10T07:49:06;103.35;;;41.22;;
33094;SDS011;19459;53.044;8.910;2022-12-10T07:51:33;102.55;;;40.17;;
33094;SDS011;19459;53.044;8.910;2022-12-10T07:54:02;96.93;;;38.78;;
33094;SDS011;19459;53.044;8.910;2022-12-10T07:56:28;103.45;;;39.17;;
33094;SDS011;19459;53.044;8.910;2022-12-10T07:58:53;115.97;;;43.03;;
33094;SDS011;19459;53.044;8.910;2022-12-10T08:01:20;121.68;;;44.25;;
33094;SDS011;19459;53.044;8.910;2022-12-10T08:03:49;106.03;;;39.25;;
33094;SDS011;19459;53.044;8.910;2022-12-10T08:06:17;92.50;;;40.53;;
33094;SDS011;19459;53.044;8.910;2022-12-10T08:08:45;95.07;;;40.20;;
33094;SDS011;19459;53.044;8.910;2022-12-10T08:11:11;79.28;;;32.58;;
33094;SDS011;19459;53.044;8.910;2022-12-10T08:13:39;69.38;;;30.02;;
33094;SDS011;19459;53.044;8.910;2022-12-10T08:18:35;84.00;;;35.75;;
33094;SDS011;19459;53.044;8.910;2022-12-10T08:21:05;86.40;;;35.95;;
33094;SDS011;19459;53.044;8.910;2022-12-10T08:23:32;87.05;;;35.50;;
33094;SDS011;19459;53.044;8.910;2022-12-10T08:26:02;88.70;;;38.40;;
33094;SDS011;19459;53.044;8.910;2022-12-10T08:28:33;93.72;;;38.88;;
33094;SDS011;19459;53.044;8.910;2022-12-10T08:30:59;92.10;;;38.42;;
33094;SDS011;19459;53.044;8.910;2022-12-10T08:33:25;98.30;;;38.15;;
33094;SDS011;19459;53.044;8.910;2022-12-10T08:35:51;95.40;;;37.33;;
33094;SDS011;19459;53.044;8.910;2022-12-10T08:38:16;95.72;;;38.33;;
33094;SDS011;19459;53.044;8.910;2022-12-10T08:40:46;98.40;;;40.70;;
33094;SDS011;19459;53.044;8.910;2022-12-10T08:43:15;101.38;;;38.92;;
33094;SDS011;19459;53.044;8.910;2022-12-10T08:45:41;113.28;;;40.45;;
33094;SDS011;19459;53.044;8.910;2022-12-10T08:48:06;92.45;;;39.28;;
33094;SDS011;19459;53.044;8.910;2022-12-10T08:50:32;92.07;;;36.20;;
33094;SDS011;19459;53.044;8.910;2022-12-10T08:52:58;97.97;;;36.92;;
33094;SDS011;19459;53.044;8.910;2022-12-10T08:55:25;94.95;;;34.35;;
33094;SDS011;19459;53.044;8.910;2022-12-10T08:57:51;96.00;;;37.45;;
33094;SDS011;19459;53.044;8.910;2022-12-10T09:00:16;90.75;;;35.53;;
33094;SDS011;19459;53.044;8.910;2022-12-10T09:02:43;97.65;;;36.33;;
33094;SDS011;19459;53.044;8.910;2022-12-10T09:05:10;97.85;;;35.45;;
33094;SDS011;19459;53.044;8.910;2022-12-10T09:07:36;99.32;;;35.97;;
33094;SDS011;19459;53.044;8.910;2022-12-10T09:10:02;85.93;;;35.67;;
33094;SDS011;19459;53.044;8.910;2022-12-10T09:12:28;99.57;;;37.60;;
33094;SDS011;19459;53.044;8.910;2022-12-10T09:14:54;112.60;;;43.60;;
33094;SDS011;19459;53.044;8.910;2022-12-10T09:17:21;115.88;;;44.05;;
33094;SDS011;19459;53.044;8.910;2022-12-10T09:19:47;107.30;;;41.97;;
33094;SDS011;19459;53.044;8.910;2022-12-10T09:22:12;113.97;;;46.30;;
33094;SDS011;19459;53.044;8.910;2022-12-10T09:24:38;100.43;;;41.88;;
33094;SDS011;19459;53.044;8.910;2022-12-10T09:27:04;92.60;;;39.78;;
33094;SDS011;19459;53.044;8.910;2022-12-10T09:29:30;86.35;;;36.45;;
33094;SDS011;19459;53.044;8.910;2022-12-10T09:31:55;90.85;;;37.45;;
33094;SDS011;19459;53.044;8.910;2022-12-10T09:34:21;86.75;;;40.28;;
33094;SDS011;19459;53.044;8.910;2022-12-10T09:36:47;92.03;;;37.13;;
33094;SDS011;19459;53.044;8.910;2022-12-10T09:39:13;86.05;;;34.10;;
33094;SDS011;19459;53.044;8.910;2022-12-10T09:47:08;80.75;;;31.95;;
33094;SDS011;19459;53.044;8.910;2022-12-10T09:52:36;82.10;;;31.75;;
33094;SDS011;19459;53.044;8.910;2022-12-10T09:55:11;76.05;;;31.80;;
33094;SDS011;19459;53.044;8.910;2022-12-10T09:57:42;74.93;;;31.67;;
33094;SDS011;19459;53.044;8.910;2022-12-10T10:03:00;71.70;;;28.15;;
33094;SDS011;19459;53.044;8.910;2022-12-10T10:05:31;75.10;;;31.45;;
33094;SDS011;19459;53.044;8.910;2022-12-10T10:08:02;54.70;;;23.20;;
33094;SDS011;19459;53.044;8.910;2022-12-10T10:10:33;44.03;;;19.10;;
33094;SDS011;19459;53.044;8.910;2022-12-10T10:15:38;56.97;;;23.88;;
33094;SDS011;19459;53.044;8.910;2022-12-10T10:18:11;63.20;;;26.98;;
33094;SDS011;19459;53.044;8.910;2022-12-10T10:21:00;61.47;;;26.75;;
33094;SDS011;19459;53.044;8.910;2022-12-10T10:23:27;56.72;;;27.42;;
33094;SDS011;19459;53.044;8.910;2022-12-10T10:25:53;63.88;;;27.15;;
33094;SDS011;19459;53.044;8.910;2022-12-10T10:28:19;76.32;;;28.20;;
33094;SDS011;19459;53.044;8.910;2022-12-10T10:30:47;75.15;;;28.80;;
33094;SDS011;19459;53.044;8.910;2022-12-10T10:33:15;71.00;;;30.38;;
33094;SDS011;19459;53.044;8.910;2022-12-10T10:35:44;66.80;;;29.05;;
33094;SDS011;19459;53.044;8.910;2022-12-10T10:38:20;65.97;;;29.33;;
33094;SDS011;19459;53.044;8.910;2022-12-10T10:40:52;60.92;;;28.33;;
33094;SDS011;19459;53.044;8.910;2022-12-10T10:43:31;52.95;;;23.05;;
33094;SDS011;19459;53.044;8.910;2022-12-10T10:46:06;72.85;;;28.67;;
33094;SDS011;19459;53.044;8.910;2022-12-10T10:48:42;64.82;;;29.73;;
33094;SDS011;19459;53.044;8.910;2022-12-10T10:51:15;80.63;;;29.02;;
33094;SDS011;19459;53.044;8.910;2022-12-10T10:53:48;56.05;;;24.65;;
33094;SDS011;19459;53.044;8.910;2022-12-10T10:56:21;54.13;;;24.02;;
33094;SDS011;19459;53.044;8.910;2022-12-10T11:01:24;48.43;;;22.37;;
33094;SDS011;19459;53.044;8.910;2022-12-10T11:04:08;51.38;;;19.67;;
33094;SDS011;19459;53.044;8.910;2022-12-10T11:06:34;41.75;;;14.35;;
33094;SDS011;19459;53.044;8.910;2022-12-10T11:09:00;24.83;;;12.40;;
33094;SDS011;19459;53.044;8.910;2022-12-10T11:11:33;27.35;;;14.65;;
33094;SDS011;19459;53.044;8.910;2022-12-10T11:14:13;33.40;;;17.95;;
33094;SDS011;19459;53.044;8.910;2022-12-10T11:16:46;41.58;;;18.77;;
33094;SDS011;19459;53.044;8.910;2022-12-10T11:19:19;34.20;;;18.15;;
33094;SDS011;19459;53.044;8.910;2022-12-10T11:21:48;37.75;;;18.05;;
33094;SDS011;19459;53.044;8.910;2022-12-10T11:24:16;37.72;;;19.25;;
33094;SDS011;19459;53.044;8.910;2022-12-10T11:27:03;38.40;;;20.05;;
33094;SDS011;19459;53.044;8.910;2022-12-10T11:35:50;27.65;;;13.73;;
33094;SDS011;19459;53.044;8.910;2022-12-10T11:44:16;27.08;;;14.15;;
33094;SDS011;19459;53.044;8.910;2022-12-10T12:04:00;52.08;;;23.88;;
33094;SDS011;19459;53.044;8.910;2022-12-10T12:15:50;49.88;;;23.80;;
33094;SDS011;19459;53.044;8.910;2022-12-10T12:18:33;48.78;;;23.38;;
33094;SDS011;19459;53.044;8.910;2022-12-10T12:21:17;53.72;;;25.60;;
33094;SDS011;19459;53.044;8.910;2022-12-10T12:23:51;59.88;;;27.23;;
33094;SDS011;19459;53.044;8.910;2022-12-10T12:26:28;60.03;;;26.48;;
33094;SDS011;19459;53.044;8.910;2022-12-10T12:29:02;50.65;;;25.20;;
33094;SDS011;19459;53.044;8.910;2022-12-10T12:32:12;48.53;;;24.60;;
33094;SDS011;19459;53.044;8.910;2022-12-10T12:34:49;46.67;;;22.77;;
33094;SDS011;19459;53.044;8.910;2022-12-10T12:37:23;51.50;;;21.10;;
33094;SDS011;19459;53.044;8.910;2022-12-10T12:40:27;45.92;;;20.92;;
33094;SDS011;19459;53.044;8.910;2022-12-10T12:42:59;51.45;;;24.73;;
33094;SDS011;19459;53.044;8.910;2022-12-10T12:45:31;66.43;;;30.92;;
33094;SDS011;19459;53.044;8.910;2022-12-10T12:48:14;57.17;;;26.02;;
33094;SDS011;19459;53.044;8.910;2022-12-10T12:53:38;58.85;;;28.60;;
33094;SDS011;19459;53.044;8.910;2022-12-10T13:01:56;59.17;;;28.88;;
33094;SDS011;19459;53.044;8.910;2022-12-10T13:04:40;53.95;;;26.20;;
33094;SDS011;19459;53.044;8.910;2022-12-10T13:07:11;57.60;;;26.30;;
33094;SDS011;19459;53.044;8.910;2022-12-10T13:12:32;56.70;;;28.15;;
33094;SDS011;19459;53.044;8.910;2022-12-10T13:15:20;62.72;;;28.88;;
33094;SDS011;19459;53.044;8.910;2022-12-10T13:20:51;54.95;;;26.48;;
33094;SDS011;19459;53.044;8.910;2022-12-10T13:23:51;58.35;;;25.35;;
33094;SDS011;19459;53.044;8.910;2022-12-10T13:26:29;58.08;;;26.65;;
33094;SDS011;19459;53.044;8.910;2022-12-10T13:29:10;56.22;;;26.63;;
33094;SDS011;19459;53.044;8.910;2022-12-10T13:31:54;58.35;;;26.92;;
33094;SDS011;19459;53.044;8.910;2022-12-10T13:34:35;49.38;;;24.52;;
33094;SDS011;19459;53.044;8.910;2022-12-10T13:37:04;54.87;;;26.03;;
33094;SDS011;19459;53.044;8.910;2022-12-10T13:39:59;51.88;;;25.50;;
33094;SDS011;19459;53.044;8.910;2022-12-10T13:42:35;52.58;;;26.42;;
33094;SDS011;19459;53.044;8.910;2022-12-10T13:53:41;52.88;;;24.92;;
33094;SDS011;19459;53.044;8.910;2022-12-10T13:56:39;48.47;;;24.63;;
33094;SDS011;19459;53.044;8.910;2022-12-10T13:59:18;50.30;;;23.70;;
33094;SDS011;19459;53.044;8.910;2022-12-10T14:07:45;54.58;;;25.48;;
33094;SDS011;19459;53.044;8.910;2022-12-10T14:10:15;56.15;;;26.55;;
33094;SDS011;19459;53.044;8.910;2022-12-10T14:12:46;54.22;;;23.05;;
33094;SDS011;19459;53.044;8.910;2022-12-10T14:15:22;54.42;;;25.65;;
33094;SDS011;19459;53.044;8.910;2022-12-10T14:17:53;46.17;;;24.13;;
33094;SDS011;19459;53.044;8.910;2022-12-10T14:20:27;50.15;;;23.73;;
33094;SDS011;19459;53.044;8.910;2022-12-10T14:22:56;45.33;;;22.98;;
33094;SDS011;19459;53.044;8.910;2022-12-10T14:25:47;54.05;;;26.13;;
33094;SDS011;19459;53.044;8.910;2022-12-10T14:28:13;50.22;;;24.15;;
33094;SDS011;19459;53.044;8.910;2022-12-10T14:30:42;52.90;;;24.42;;
33094;SDS011;19459;53.044;8.910;2022-12-10T14:33:12;61.45;;;28.65;;
33094;SDS011;19459;53.044;8.910;2022-12-10T14:35:49;52.25;;;25.23;;
33094;SDS011;19459;53.044;8.910;2022-12-10T14:38:24;53.67;;;25.45;;
33094;SDS011;19459;53.044;8.910;2022-12-10T14:41:00;55.78;;;25.35;;
33094;SDS011;19459;53.044;8.910;2022-12-10T14:43:37;46.05;;;23.77;;
33094;SDS011;19459;53.044;8.910;2022-12-10T14:46:05;54.42;;;24.65;;
33094;SDS011;19459;53.044;8.910;2022-12-10T14:48:40;51.72;;;24.17;;
33094;SDS011;19459;53.044;8.910;2022-12-10T14:51:17;50.10;;;25.02;;
33094;SDS011;19459;53.044;8.910;2022-12-10T14:53:47;53.08;;;26.70;;
33094;SDS011;19459;53.044;8.910;2022-12-10T14:56:32;56.58;;;26.80;;
33094;SDS011;19459;53.044;8.910;2022-12-10T14:59:02;58.28;;;28.23;;
33094;SDS011;19459;53.044;8.910;2022-12-10T15:01:33;61.13;;;28.17;;
33094;SDS011;19459;53.044;8.910;2022-12-10T15:04:04;67.43;;;29.00;;
33094;SDS011;19459;53.044;8.910;2022-12-10T15:06:35;58.92;;;28.10;;
33094;SDS011;19459;53.044;8.910;2022-12-10T15:09:02;62.55;;;28.02;;
33094;SDS011;19459;53.044;8.910;2022-12-10T15:11:30;61.30;;;28.08;;
33094;SDS011;19459;53.044;8.910;2022-12-10T15:14:00;55.63;;;25.90;;
33094;SDS011;19459;53.044;8.910;2022-12-10T15:16:43;55.65;;;25.88;;
33094;SDS011;19459;53.044;8.910;2022-12-10T15:19:20;57.72;;;25.63;;
33094;SDS011;19459;53.044;8.910;2022-12-10T15:21:49;54.65;;;25.75;;
33094;SDS011;19459;53.044;8.910;2022-12-10T15:24:21;55.85;;;28.73;;
33094;SDS011;19459;53.044;8.910;2022-12-10T15:26:52;60.30;;;29.30;;
33094;SDS011;19459;53.044;8.910;2022-12-10T15:31:54;61.13;;;27.63;;
33094;SDS011;19459;53.044;8.910;2022-12-10T15:34:52;57.80;;;26.92;;
33094;SDS011;19459;53.044;8.910;2022-12-10T15:37:25;55.75;;;26.73;;
33094;SDS011;19459;53.044;8.910;2022-12-10T15:39:59;57.97;;;28.45;;
33094;SDS011;19459;53.044;8.910;2022-12-10T15:42:44;53.28;;;24.73;;
33094;SDS011;19459;53.044;8.910;2022-12-10T15:45:21;55.83;;;27.15;;
33094;SDS011;19459;53.044;8.910;2022-12-10T15:47:51;53.58;;;26.20;;
33094;SDS011;19459;53.044;8.910;2022-12-10T15:50:19;62.78;;;26.13;;
33094;SDS011;19459;53.044;8.910;2022-12-10T15:52:45;59.08;;;26.58;;
33094;SDS011;19459;53.044;8.910;2022-12-10T15:55:12;58.38;;;25.73;;
33094;SDS011;19459;53.044;8.910;2022-12-10T15:57:41;49.10;;;25.15;;
33094;SDS011;19459;53.044;8.910;2022-12-10T16:00:18;56.53;;;26.35;;
33094;SDS011;19459;53.044;8.910;2022-12-10T16:03:00;47.50;;;25.45;;
33094;SDS011;19459;53.044;8.910;2022-12-10T16:05:34;52.15;;;24.40;;
33094;SDS011;19459;53.044;8.910;2022-12-10T16:08:13;49.53;;;23.98;;
33094;SDS011;19459;53.044;8.910;2022-12-10T16:10:48;51.70;;;25.13;;
33094;SDS011;19459;53.044;8.910;2022-12-10T16:13:20;49.95;;;26.50;;
33094;SDS011;19459;53.044;8.910;2022-12-10T16:16:08;58.58;;;26.92;;
33094;SDS011;19459;53.044;8.910;2022-12-10T16:18:35;50.53;;;25.17;;
33094;SDS011;19459;53.044;8.910;2022-12-10T16:21:02;48.03;;;24.58;;
33094;SDS011;19459;53.044;8.910;2022-12-10T16:23:30;51.35;;;26.98;;
33094;SDS011;19459;53.044;8.910;2022-12-10T16:25:56;52.30;;;25.25;;
33094;SDS011;19459;53.044;8.910;2022-12-10T16:28:22;52.92;;;26.30;;
33094;SDS011;19459;53.044;8.910;2022-12-10T16:33:17;55.33;;;26.05;;